sensor_id;sensor_type;location;lat;lon;timestamp;pressure;altitude;pressure_sealevel;temperature;humidity
78121;BME280;67585;44.802;10.332;2023-06-24T00:00:24;100970.03;;;27.01;50.22
78121;BME280;67585;44.802;10.332;2023-06-24T00:02:50;100919.94;;;26.67;50.54
78121;BME280;67585;44.802;10.332;2023-06-24T00:05:16;100974.16;;;26.91;50.15
78121;BME280;67585;44.802;10.332;2023-06-24T00:07:41;100972.19;;;26.92;50.49
78121;BME280;67585;44.802;10.332;2023-06-24T00:10:13;100974.88;;;26.69;50.79
78121;BME280;67585;44.802;10.332;2023-06-24T00:12:39;100965.91;;;26.56;51.46
78121;BME280;67585;44.802;10.332;2023-06-24T00:15:07;100978.69;;;26.80;50.71
78121;BME280;67585;44.802;10.332;2023-06-24T00:17:33;100979.94;;;27.02;51.08
78121;BME280;67585;44.802;10.332;2023-06-24T00:19:58;100975.50;;;26.62;51.07
78121;BME280;67585;44.802;10.332;2023-06-24T00:22:24;100990.72;;;26.72;51.25
78121;BME280;67585;44.802;10.332;2023-06-24T00:24:49;100967.31;;;26.66;50.97
78121;BME280;67585;44.802;10.332;2023-06-24T00:27:15;100971.94;;;26.30;52.44
78121;BME280;67585;44.802;10.332;2023-06-24T00:29:41;100962.94;;;26.33;52.22
78121;BME280;67585;44.802;10.332;2023-06-24T00:32:07;100956.22;;;26.50;51.52
78121;BME280;67585;44.802;10.332;2023-06-24T00:34:32;100969.19;;;26.30;52.07
78121;BME280;67585;44.802;10.332;2023-06-24T00:36:57;100984.94;;;26.45;51.91
78121;BME280;67585;44.802;10.332;2023-06-24T00:39:23;100980.09;;;26.74;51.19
78121;BME280;67585;44.802;10.332;2023-06-24T00:41:48;100970.59;;;26.55;51.44
78121;BME280;67585;44.802;10.332;2023-06-24T00:44:14;100956.88;;;26.59;51.41
78121;BME280;67585;44.802;10.332;2023-06-24T00:46:39;100939.75;;;26.37;51.85
78121;BME280;67585;44.802;10.332;2023-06-24T00:49:05;100969.19;;;25.70;54.09
78121;BME280;67585;44.802;10.332;2023-06-24T00:51:31;100969.72;;;26.35;51.95
78121;BME280;67585;44.802;10.332;2023-06-24T00:53:57;100967.41;;;26.37;52.08
78121;BME280;67585;44.802;10.332;2023-06-24T00:56:30;100964.72;;;26.57;51.59
78121;BME280;67585;44.802;10.332;2023-06-24T00:58:57;100961.41;;;26.35;51.43
78121;BME280;67585;44.802;10.332;2023-06-24T01:01:25;100967.03;;;26.55;51.58
78121;BME280;67585;44.802;10.332;2023-06-24T01:03:50;100968.56;;;26.36;52.14
78121;BME280;67585;44.802;10.332;2023-06-24T01:06:16;100978.91;;;26.39;51.62
78121;BME280;67585;44.802;10.332;2023-06-24T01:08:41;100962.22;;;26.04;52.38
78121;BME280;67585;44.802;10.332;2023-06-24T01:11:07;100964.28;;;26.39;50.85
78121;BME280;67585;44.802;10.332;2023-06-24T01:13:32;100975.22;;;26.67;50.83
78121;BME280;67585;44.802;10.332;2023-06-24T01:16:02;100972.09;;;26.53;51.09
78121;BME280;67585;44.802;10.332;2023-06-24T01:18:48;100971.78;;;26.22;51.17
78121;BME280;67585;44.802;10.332;2023-06-24T01:21:50;100971.84;;;26.26;48.98
78121;BME280;67585;44.802;10.332;2023-06-24T01:25:14;100977.19;;;26.19;48.59
78121;BME280;67585;44.802;10.332;2023-06-24T01:27:52;100976.56;;;26.41;47.61
78121;BME280;67585;44.802;10.332;2023-06-24T01:30:47;100979.06;;;26.47;46.84
78121;BME280;67585;44.802;10.332;2023-06-24T01:33:22;100978.09;;;26.07;44.91
78121;BME280;67585;44.802;10.332;2023-06-24T01:35:48;100978.28;;;25.98;44.74
78121;BME280;67585;44.802;10.332;2023-06-24T01:38:48;100973.13;;;25.69;43.62
78121;BME280;67585;44.802;10.332;2023-06-24T01:41:22;100966.16;;;25.59;44.63
78121;BME280;67585;44.802;10.332;2023-06-24T01:43:49;100949.34;;;25.36;44.04
78121;BME280;67585;44.802;10.332;2023-06-24T01:46:21;100968.22;;;25.34;44.05
78121;BME280;67585;44.802;10.332;2023-06-24T01:48:47;100956.19;;;25.14;45.06
78121;BME280;67585;44.802;10.332;2023-06-24T01:51:35;100980.66;;;25.28;47.13
78121;BME280;67585;44.802;10.332;2023-06-24T01:54:19;100980.50;;;25.36;46.66
78121;BME280;67585;44.802;10.332;2023-06-24T01:56:46;100971.00;;;25.22;47.51
78121;BME280;67585;44.802;10.332;2023-06-24T01:59:14;100965.75;;;25.04;49.38
78121;BME280;67585;44.802;10.332;2023-06-24T02:01:42;100987.00;;;25.04;50.13
78121;BME280;67585;44.802;10.332;2023-06-24T02:04:09;100988.47;;;25.26;49.92
78121;BME280;67585;44.802;10.332;2023-06-24T02:06:38;101003.06;;;25.26;50.50
78121;BME280;67585;44.802;10.332;2023-06-24T02:09:06;100982.81;;;25.34;50.39
78121;BME280;67585;44.802;10.332;2023-06-24T02:11:33;100999.41;;;25.50;50.52
78121;BME280;67585;44.802;10.332;2023-06-24T02:14:01;100991.91;;;25.35;51.99
78121;BME280;67585;44.802;10.332;2023-06-24T02:16:29;100979.00;;;24.99;52.38
78121;BME280;67585;44.802;10.332;2023-06-24T02:18:55;101002.97;;;25.10;52.83
78121;BME280;67585;44.802;10.332;2023-06-24T02:21:22;100982.00;;;24.81;52.84
78121;BME280;67585;44.802;10.332;2023-06-24T02:23:49;101006.31;;;25.04;52.71
78121;BME280;67585;44.802;10.332;2023-06-24T02:26:15;101007.78;;;25.13;51.88
78121;BME280;67585;44.802;10.332;2023-06-24T02:28:44;101005.63;;;25.47;50.93
78121;BME280;67585;44.802;10.332;2023-06-24T02:31:10;101004.72;;;25.43;50.42
78121;BME280;67585;44.802;10.332;2023-06-24T02:33:36;101009.75;;;25.25;49.50
78121;BME280;67585;44.802;10.332;2023-06-24T02:36:01;101008.84;;;24.97;49.87
78121;BME280;67585;44.802;10.332;2023-06-24T02:38:27;100998.66;;;24.85;48.64
78121;BME280;67585;44.802;10.332;2023-06-24T02:40:52;101008.16;;;24.87;49.05
78121;BME280;67585;44.802;10.332;2023-06-24T02:43:18;101019.84;;;25.21;47.71
78121;BME280;67585;44.802;10.332;2023-06-24T02:45:44;100991.03;;;25.06;46.88
78121;BME280;67585;44.802;10.332;2023-06-24T02:48:11;101010.78;;;25.08;47.20
78121;BME280;67585;44.802;10.332;2023-06-24T02:50:38;101010.19;;;25.15;46.94
78121;BME280;67585;44.802;10.332;2023-06-24T02:53:10;101020.44;;;24.90;47.05
78121;BME280;67585;44.802;10.332;2023-06-24T02:55:37;101016.41;;;25.00;46.51
78121;BME280;67585;44.802;10.332;2023-06-24T02:58:05;101022.75;;;24.51;46.18
78121;BME280;67585;44.802;10.332;2023-06-24T03:00:34;101018.72;;;24.36;46.53
78121;BME280;67585;44.802;10.332;2023-06-24T03:03:00;101025.09;;;24.73;45.76
78121;BME280;67585;44.802;10.332;2023-06-24T03:05:26;101018.06;;;24.64;45.25
78121;BME280;67585;44.802;10.332;2023-06-24T03:07:52;101028.25;;;24.76;45.25
78121;BME280;67585;44.802;10.332;2023-06-24T03:10:18;101025.41;;;24.47;46.14
78121;BME280;67585;44.802;10.332;2023-06-24T03:12:43;101019.97;;;24.39;45.53
78121;BME280;67585;44.802;10.332;2023-06-24T03:15:09;101022.69;;;24.14;45.72
78121;BME280;67585;44.802;10.332;2023-06-24T03:17:34;101017.00;;;23.86;46.79
78121;BME280;67585;44.802;10.332;2023-06-24T03:20:00;101044.00;;;24.05;46.30
78121;BME280;67585;44.802;10.332;2023-06-24T03:22:26;101029.28;;;23.67;46.35
78121;BME280;67585;44.802;10.332;2023-06-24T03:24:51;101035.34;;;23.82;46.50
78121;BME280;67585;44.802;10.332;2023-06-24T03:27:18;101052.25;;;24.50;45.54
78121;BME280;67585;44.802;10.332;2023-06-24T03:29:44;101057.22;;;24.82;46.03
78121;BME280;67585;44.802;10.332;2023-06-24T03:32:09;101061.69;;;24.49;46.38
78121;BME280;67585;44.802;10.332;2023-06-24T03:34:34;101065.75;;;24.31;44.90
78121;BME280;67585;44.802;10.332;2023-06-24T03:37:00;101060.84;;;23.91;46.07
78121;BME280;67585;44.802;10.332;2023-06-24T03:39:26;101064.13;;;24.18;45.48
78121;BME280;67585;44.802;10.332;2023-06-24T03:41:51;101066.28;;;24.12;44.96
78121;BME280;67585;44.802;10.332;2023-06-24T03:44:17;101071.44;;;23.80;46.42
78121;BME280;67585;44.802;10.332;2023-06-24T03:46:42;101065.66;;;24.40;45.29
78121;BME280;67585;44.802;10.332;2023-06-24T03:49:07;101079.72;;;24.59;44.62
78121;BME280;67585;44.802;10.332;2023-06-24T03:51:33;101076.91;;;24.35;43.67
78121;BME280;67585;44.802;10.332;2023-06-24T03:53:59;101078.22;;;24.49;43.46
78121;BME280;67585;44.802;10.332;2023-06-24T03:56:24;101060.16;;;24.40;44.75
78121;BME280;67585;44.802;10.332;2023-06-24T03:58:50;101068.47;;;24.52;44.19
78121;BME280;67585;44.802;10.332;2023-06-24T04:01:15;101087.88;;;23.89;45.04
78121;BME280;67585;44.802;10.332;2023-06-24T04:03:44;101085.94;;;23.89;45.27
78121;BME280;67585;44.802;10.332;2023-06-24T04:06:09;101091.28;;;23.86;44.43
78121;BME280;67585;44.802;10.332;2023-06-24T04:08:35;101098.53;;;24.24;45.31
78121;BME280;67585;44.802;10.332;2023-06-24T04:11:00;101084.63;;;24.08;44.45
78121;BME280;67585;44.802;10.332;2023-06-24T04:13:28;101088.41;;;23.82;45.74
78121;BME280;67585;44.802;10.332;2023-06-24T04:15:53;101089.47;;;23.90;45.23
78121;BME280;67585;44.802;10.332;2023-06-24T04:18:19;101101.03;;;23.83;46.00
78121;BME280;67585;44.802;10.332;2023-06-24T04:20:44;101105.28;;;24.14;44.88
78121;BME280;67585;44.802;10.332;2023-06-24T04:23:10;101105.75;;;24.16;45.27
78121;BME280;67585;44.802;10.332;2023-06-24T04:25:36;101109.31;;;23.96;45.37
78121;BME280;67585;44.802;10.332;2023-06-24T04:28:02;101109.25;;;24.04;45.49
78121;BME280;67585;44.802;10.332;2023-06-24T04:30:30;101106.63;;;23.66;45.69
78121;BME280;67585;44.802;10.332;2023-06-24T04:32:55;101114.50;;;23.76;45.46
78121;BME280;67585;44.802;10.332;2023-06-24T04:35:20;101120.41;;;24.08;45.72
78121;BME280;67585;44.802;10.332;2023-06-24T04:37:46;101121.22;;;24.08;46.37
78121;BME280;67585;44.802;10.332;2023-06-24T04:40:11;101127.13;;;24.31;45.56
78121;BME280;67585;44.802;10.332;2023-06-24T04:42:38;101097.59;;;24.20;44.82
78121;BME280;67585;44.802;10.332;2023-06-24T04:45:04;101098.75;;;24.52;47.46
78121;BME280;67585;44.802;10.332;2023-06-24T04:47:31;101109.06;;;25.94;42.09
78121;BME280;67585;44.802;10.332;2023-06-24T04:49:56;101137.03;;;25.92;43.55
78121;BME280;67585;44.802;10.332;2023-06-24T04:52:23;101126.81;;;25.80;42.54
78121;BME280;67585;44.802;10.332;2023-06-24T04:54:48;101131.75;;;25.34;43.86
78121;BME280;67585;44.802;10.332;2023-06-24T04:57:27;101138.91;;;25.76;43.00
78121;BME280;67585;44.802;10.332;2023-06-24T04:59:52;101131.38;;;25.48;43.66
78121;BME280;67585;44.802;10.332;2023-06-24T05:02:18;101132.22;;;25.77;43.10
78121;BME280;67585;44.802;10.332;2023-06-24T05:04:43;101117.69;;;25.92;42.46
78121;BME280;67585;44.802;10.332;2023-06-24T05:07:08;101115.88;;;25.56;42.54
78121;BME280;67585;44.802;10.332;2023-06-24T05:09:34;101130.72;;;25.27;44.06
78121;BME280;67585;44.802;10.332;2023-06-24T05:12:05;101100.16;;;24.83;43.99
78121;BME280;67585;44.802;10.332;2023-06-24T05:14:31;101141.97;;;25.34;44.54
78121;BME280;67585;44.802;10.332;2023-06-24T05:16:56;101140.00;;;25.47;44.20
78121;BME280;67585;44.802;10.332;2023-06-24T05:19:22;101146.75;;;24.63;45.93
78121;BME280;67585;44.802;10.332;2023-06-24T05:21:47;101144.44;;;24.53;46.46
78121;BME280;67585;44.802;10.332;2023-06-24T05:24:12;101124.03;;;24.79;45.47
78121;BME280;67585;44.802;10.332;2023-06-24T05:26:38;101131.38;;;23.75;48.17
78121;BME280;67585;44.802;10.332;2023-06-24T05:29:03;101130.75;;;24.11;48.28
78121;BME280;67585;44.802;10.332;2023-06-24T05:31:29;101118.16;;;23.89;47.92
78121;BME280;67585;44.802;10.332;2023-06-24T05:33:54;101140.34;;;24.71;46.67
78121;BME280;67585;44.802;10.332;2023-06-24T05:36:19;101148.28;;;25.59;44.86
78121;BME280;67585;44.802;10.332;2023-06-24T05:38:45;101157.47;;;25.38;45.24
78121;BME280;67585;44.802;10.332;2023-06-24T05:41:10;101148.06;;;25.52;44.94
78121;BME280;67585;44.802;10.332;2023-06-24T05:43:36;101148.28;;;25.47;45.20
78121;BME280;67585;44.802;10.332;2023-06-24T05:46:01;101148.56;;;25.70;44.53
78121;BME280;67585;44.802;10.332;2023-06-24T05:48:27;101143.00;;;25.54;44.05
78121;BME280;67585;44.802;10.332;2023-06-24T05:50:52;101173.69;;;26.33;43.03
78121;BME280;67585;44.802;10.332;2023-06-24T05:53:18;101143.47;;;26.25;42.65
78121;BME280;67585;44.802;10.332;2023-06-24T05:55:43;101158.50;;;26.55;42.82
78121;BME280;67585;44.802;10.332;2023-06-24T05:58:09;101150.38;;;26.47;42.11
78121;BME280;67585;44.802;10.332;2023-06-24T06:00:34;101164.03;;;26.55;41.43
78121;BME280;67585;44.802;10.332;2023-06-24T06:02:59;101153.81;;;26.56;41.68
78121;BME280;67585;44.802;10.332;2023-06-24T06:05:25;101129.16;;;26.51;41.22
78121;BME280;67585;44.802;10.332;2023-06-24T06:07:51;101179.50;;;26.44;41.33
78121;BME280;67585;44.802;10.332;2023-06-24T06:10:17;101126.53;;;26.26;41.47
78121;BME280;67585;44.802;10.332;2023-06-24T06:12:43;101181.28;;;26.36;41.06
78121;BME280;67585;44.802;10.332;2023-06-24T06:15:09;101169.53;;;26.11;40.96
78121;BME280;67585;44.802;10.332;2023-06-24T06:17:35;101177.94;;;25.37;42.64
78121;BME280;67585;44.802;10.332;2023-06-24T06:20:00;101189.66;;;26.40;41.20
78121;BME280;67585;44.802;10.332;2023-06-24T06:22:26;101184.53;;;26.26;40.73
78121;BME280;67585;44.802;10.332;2023-06-24T06:24:51;101192.69;;;26.79;39.66
78121;BME280;67585;44.802;10.332;2023-06-24T06:27:16;101186.00;;;26.64;39.46
78121;BME280;67585;44.802;10.332;2023-06-24T06:29:42;101189.91;;;26.35;38.65
78121;BME280;67585;44.802;10.332;2023-06-24T06:32:07;101176.19;;;26.38;39.10
78121;BME280;67585;44.802;10.332;2023-06-24T06:34:33;101202.53;;;26.92;38.46
78121;BME280;67585;44.802;10.332;2023-06-24T06:36:58;101194.94;;;27.05;38.48
78121;BME280;67585;44.802;10.332;2023-06-24T06:39:24;101199.56;;;27.01;38.24
78121;BME280;67585;44.802;10.332;2023-06-24T06:41:49;101202.16;;;27.10;37.58
78121;BME280;67585;44.802;10.332;2023-06-24T06:44:14;101194.13;;;26.89;38.14
78121;BME280;67585;44.802;10.332;2023-06-24T06:46:40;101223.50;;;26.65;36.97
78121;BME280;67585;44.802;10.332;2023-06-24T06:49:05;101213.69;;;27.27;36.44
78121;BME280;67585;44.802;10.332;2023-06-24T06:51:31;101208.75;;;27.37;37.20
78121;BME280;67585;44.802;10.332;2023-06-24T06:53:56;101198.78;;;27.16;36.19
78121;BME280;67585;44.802;10.332;2023-06-24T06:56:25;101194.47;;;26.71;37.40
78121;BME280;67585;44.802;10.332;2023-06-24T06:58:51;101202.69;;;27.15;37.41
78121;BME280;67585;44.802;10.332;2023-06-24T07:01:17;101197.94;;;27.16;36.65
78121;BME280;67585;44.802;10.332;2023-06-24T07:03:43;101195.38;;;26.75;37.44
78121;BME280;67585;44.802;10.332;2023-06-24T07:06:08;101211.34;;;26.98;37.23
78121;BME280;67585;44.802;10.332;2023-06-24T07:08:34;101188.03;;;27.46;36.08
78121;BME280;67585;44.802;10.332;2023-06-24T07:11:01;101198.94;;;27.23;37.09
78121;BME280;67585;44.802;10.332;2023-06-24T07:13:26;101214.56;;;27.32;36.94
78121;BME280;67585;44.802;10.332;2023-06-24T07:15:52;101199.50;;;26.97;37.05
78121;BME280;67585;44.802;10.332;2023-06-24T07:18:17;101227.22;;;27.17;36.58
78121;BME280;67585;44.802;10.332;2023-06-24T07:20:42;101196.88;;;26.89;36.89
78121;BME280;67585;44.802;10.332;2023-06-24T07:23:08;101220.22;;;27.19;36.62
78121;BME280;67585;44.802;10.332;2023-06-24T07:25:36;101225.16;;;26.82;37.61
78121;BME280;67585;44.802;10.332;2023-06-24T07:28:02;101217.75;;;26.86;37.76
78121;BME280;67585;44.802;10.332;2023-06-24T07:30:28;101223.22;;;27.14;37.28
78121;BME280;67585;44.802;10.332;2023-06-24T07:32:53;101216.34;;;26.92;37.35
78121;BME280;67585;44.802;10.332;2023-06-24T07:35:18;101235.41;;;26.66;38.52
78121;BME280;67585;44.802;10.332;2023-06-24T07:37:44;101225.81;;;27.23;37.69
78121;BME280;67585;44.802;10.332;2023-06-24T07:40:10;101203.63;;;27.55;36.67
78121;BME280;67585;44.802;10.332;2023-06-24T07:42:35;101214.81;;;26.79;38.23
78121;BME280;67585;44.802;10.332;2023-06-24T07:45:01;101200.47;;;27.21;38.09
78121;BME280;67585;44.802;10.332;2023-06-24T07:47:26;101229.56;;;27.82;36.60
78121;BME280;67585;44.802;10.332;2023-06-24T07:49:52;101211.19;;;27.74;36.93
78121;BME280;67585;44.802;10.332;2023-06-24T07:52:17;101211.69;;;28.34;35.70
78121;BME280;67585;44.802;10.332;2023-06-24T07:54:44;101232.44;;;27.85;36.56
78121;BME280;67585;44.802;10.332;2023-06-24T07:57:09;101230.19;;;28.10;36.08
78121;BME280;67585;44.802;10.332;2023-06-24T07:59:34;101208.25;;;27.66;37.55
78121;BME280;67585;44.802;10.332;2023-06-24T08:02:00;101215.88;;;27.54;37.29
78121;BME280;67585;44.802;10.332;2023-06-24T08:04:25;101231.72;;;28.66;35.19
78121;BME280;67585;44.802;10.332;2023-06-24T08:06:51;101222.63;;;28.89;35.55
78121;BME280;67585;44.802;10.332;2023-06-24T08:09:17;101208.03;;;28.92;35.31
78121;BME280;67585;44.802;10.332;2023-06-24T08:11:43;101191.41;;;28.10;36.02
78121;BME280;67585;44.802;10.332;2023-06-24T08:14:09;101217.53;;;28.29;36.12
78121;BME280;67585;44.802;10.332;2023-06-24T08:16:34;101209.75;;;28.77;34.64
78121;BME280;67585;44.802;10.332;2023-06-24T08:18:59;101226.53;;;29.30;33.96
78121;BME280;67585;44.802;10.332;2023-06-24T08:21:25;101220.59;;;29.32;33.33
78121;BME280;67585;44.802;10.332;2023-06-24T08:23:50;101207.00;;;29.50;34.39
78121;BME280;67585;44.802;10.332;2023-06-24T08:26:17;101230.16;;;29.88;34.67
78121;BME280;67585;44.802;10.332;2023-06-24T08:28:42;101222.53;;;29.28;35.16
78121;BME280;67585;44.802;10.332;2023-06-24T08:31:08;101224.47;;;29.77;32.97
78121;BME280;67585;44.802;10.332;2023-06-24T08:33:33;101215.75;;;30.09;33.28
78121;BME280;67585;44.802;10.332;2023-06-24T08:35:59;101221.66;;;30.07;32.39
78121;BME280;67585;44.802;10.332;2023-06-24T08:38:27;101223.03;;;30.20;33.20
78121;BME280;67585;44.802;10.332;2023-06-24T08:40:53;101220.75;;;30.26;32.43
78121;BME280;67585;44.802;10.332;2023-06-24T08:43:18;101161.66;;;30.02;32.96
78121;BME280;67585;44.802;10.332;2023-06-24T08:45:44;101183.69;;;30.15;32.62
78121;BME280;67585;44.802;10.332;2023-06-24T08:48:10;101159.28;;;30.35;33.07
78121;BME280;67585;44.802;10.332;2023-06-24T08:50:43;101190.06;;;30.97;31.40
78121;BME280;67585;44.802;10.332;2023-06-24T08:53:09;101223.09;;;30.99;31.43
78121;BME280;67585;44.802;10.332;2023-06-24T08:55:36;101224.97;;;30.84;31.68
78121;BME280;67585;44.802;10.332;2023-06-24T08:58:04;101211.78;;;31.22;30.30
78121;BME280;67585;44.802;10.332;2023-06-24T09:00:30;101220.44;;;31.17;30.89
78121;BME280;67585;44.802;10.332;2023-06-24T09:02:55;101201.84;;;31.28;30.88
78121;BME280;67585;44.802;10.332;2023-06-24T09:05:21;101214.38;;;31.52;30.52
78121;BME280;67585;44.802;10.332;2023-06-24T09:07:48;101203.63;;;31.50;29.59
78121;BME280;67585;44.802;10.332;2023-06-24T09:10:33;101218.59;;;31.35;30.95
78121;BME280;67585;44.802;10.332;2023-06-24T09:13:03;101211.34;;;31.79;30.90
78121;BME280;67585;44.802;10.332;2023-06-24T09:15:36;101207.00;;;31.92;29.95
78121;BME280;67585;44.802;10.332;2023-06-24T09:18:03;101220.22;;;31.99;29.42
78121;BME280;67585;44.802;10.332;2023-06-24T09:20:32;101213.91;;;32.12;28.34
78121;BME280;67585;44.802;10.332;2023-06-24T09:23:02;101103.50;;;31.93;27.54
78121;BME280;67585;44.802;10.332;2023-06-24T09:25:28;101209.69;;;32.51;26.19
78121;BME280;67585;44.802;10.332;2023-06-24T09:27:54;101176.31;;;31.81;25.38
78121;BME280;67585;44.802;10.332;2023-06-24T09:30:24;101205.13;;;32.07;25.67
78121;BME280;67585;44.802;10.332;2023-06-24T09:32:54;101204.47;;;32.46;25.23
78121;BME280;67585;44.802;10.332;2023-06-24T09:35:21;101204.53;;;32.96;25.01
78121;BME280;67585;44.802;10.332;2023-06-24T09:37:51;101194.44;;;32.30;25.53
78121;BME280;67585;44.802;10.332;2023-06-24T09:40:17;101195.75;;;32.83;25.07
78121;BME280;67585;44.802;10.332;2023-06-24T09:43:08;101182.19;;;32.64;23.67
78121;BME280;67585;44.802;10.332;2023-06-24T09:45:44;101192.97;;;32.83;23.90
78121;BME280;67585;44.802;10.332;2023-06-24T09:48:13;101182.59;;;32.76;22.96
78121;BME280;67585;44.802;10.332;2023-06-24T09:50:39;101161.06;;;32.88;22.94
78121;BME280;67585;44.802;10.332;2023-06-24T09:53:05;101134.34;;;33.08;23.21
78121;BME280;67585;44.802;10.332;2023-06-24T09:55:31;101169.03;;;33.18;21.43
78121;BME280;67585;44.802;10.332;2023-06-24T09:57:57;101177.34;;;33.47;21.05
78121;BME280;67585;44.802;10.332;2023-06-24T10:00:23;101166.16;;;33.54;19.86
78121;BME280;67585;44.802;10.332;2023-06-24T10:02:48;101182.63;;;33.09;20.28
78121;BME280;67585;44.802;10.332;2023-06-24T10:05:14;101165.06;;;33.08;21.17
78121;BME280;67585;44.802;10.332;2023-06-24T10:07:41;101168.16;;;33.68;20.56
78121;BME280;67585;44.802;10.332;2023-06-24T10:10:08;101127.16;;;33.04;21.59
78121;BME280;67585;44.802;10.332;2023-06-24T10:12:35;101141.41;;;33.59;21.26
78121;BME280;67585;44.802;10.332;2023-06-24T10:15:01;101148.28;;;33.01;21.56
78121;BME280;67585;44.802;10.332;2023-06-24T10:17:27;101158.94;;;33.71;21.85
78121;BME280;67585;44.802;10.332;2023-06-24T10:19:53;101155.72;;;33.79;21.32
78121;BME280;67585;44.802;10.332;2023-06-24T10:22:22;101143.53;;;34.22;21.09
78121;BME280;67585;44.802;10.332;2023-06-24T10:24:53;101115.66;;;34.11;22.11
78121;BME280;67585;44.802;10.332;2023-06-24T10:27:22;101119.09;;;33.52;22.16
78121;BME280;67585;44.802;10.332;2023-06-24T10:29:49;101146.81;;;34.13;21.93
78121;BME280;67585;44.802;10.332;2023-06-24T10:32:15;101145.44;;;33.62;21.54
78121;BME280;67585;44.802;10.332;2023-06-24T10:34:42;101137.38;;;33.71;21.40
78121;BME280;67585;44.802;10.332;2023-06-24T10:37:34;101146.22;;;33.52;21.48
78121;BME280;67585;44.802;10.332;2023-06-24T10:40:00;101143.72;;;33.79;21.95
78121;BME280;67585;44.802;10.332;2023-06-24T10:47:49;101130.84;;;34.03;21.81
78121;BME280;67585;44.802;10.332;2023-06-24T10:50:17;101134.00;;;34.12;22.07
78121;BME280;67585;44.802;10.332;2023-06-24T10:52:45;101105.88;;;33.67;22.08
78121;BME280;67585;44.802;10.332;2023-06-24T10:55:13;101123.31;;;34.56;21.46
78121;BME280;67585;44.802;10.332;2023-06-24T10:57:38;101124.13;;;33.90;21.29
78121;BME280;67585;44.802;10.332;2023-06-24T11:00:04;101110.31;;;33.50;22.09
78121;BME280;67585;44.802;10.332;2023-06-24T11:02:30;101126.06;;;34.11;22.49
78121;BME280;67585;44.802;10.332;2023-06-24T11:04:57;101124.03;;;34.08;20.60
78121;BME280;67585;44.802;10.332;2023-06-24T11:07:25;101129.00;;;34.45;21.05
78121;BME280;67585;44.802;10.332;2023-06-24T11:09:54;101123.50;;;34.31;21.98
78121;BME280;67585;44.802;10.332;2023-06-24T11:12:27;101117.91;;;34.31;22.98
78121;BME280;67585;44.802;10.332;2023-06-24T11:14:57;101097.44;;;33.78;22.65
78121;BME280;67585;44.802;10.332;2023-06-24T11:17:23;101101.00;;;33.82;22.63
78121;BME280;67585;44.802;10.332;2023-06-24T11:19:49;101111.00;;;33.76;23.60
78121;BME280;67585;44.802;10.332;2023-06-24T11:22:15;101101.81;;;33.82;22.41
78121;BME280;67585;44.802;10.332;2023-06-24T11:24:41;101100.22;;;33.78;21.64
78121;BME280;67585;44.802;10.332;2023-06-24T11:27:07;101109.91;;;33.48;22.37
78121;BME280;67585;44.802;10.332;2023-06-24T11:29:33;101120.78;;;32.92;23.93
78121;BME280;67585;44.802;10.332;2023-06-24T11:32:02;101094.44;;;33.22;23.56
78121;BME280;67585;44.802;10.332;2023-06-24T11:34:28;101115.97;;;33.29;24.18
78121;BME280;67585;44.802;10.332;2023-06-24T11:36:54;101112.72;;;33.48;24.22
78121;BME280;67585;44.802;10.332;2023-06-24T11:39:22;101098.97;;;33.90;23.26
78121;BME280;67585;44.802;10.332;2023-06-24T11:41:48;101094.59;;;33.85;23.75
78121;BME280;67585;44.802;10.332;2023-06-24T11:44:14;101081.50;;;33.75;24.26
78121;BME280;67585;44.802;10.332;2023-06-24T11:46:40;101097.94;;;33.62;22.79
78121;BME280;67585;44.802;10.332;2023-06-24T11:49:06;101064.56;;;33.05;21.85
78121;BME280;67585;44.802;10.332;2023-06-24T11:51:33;101063.44;;;32.55;21.33
78121;BME280;67585;44.802;10.332;2023-06-24T11:54:00;101088.47;;;33.02;21.74
78121;BME280;67585;44.802;10.332;2023-06-24T11:56:35;101095.66;;;32.82;22.16
78121;BME280;67585;44.802;10.332;2023-06-24T11:59:04;101078.53;;;32.87;22.95
78121;BME280;67585;44.802;10.332;2023-06-24T12:01:33;101071.69;;;33.27;22.35
78121;BME280;67585;44.802;10.332;2023-06-24T12:04:10;101068.78;;;33.59;23.10
78121;BME280;67585;44.802;10.332;2023-06-24T12:06:35;101077.28;;;34.12;22.53
78121;BME280;67585;44.802;10.332;2023-06-24T12:09:01;101081.31;;;34.11;21.62
78121;BME280;67585;44.802;10.332;2023-06-24T12:11:26;101074.38;;;33.49;23.57
78121;BME280;67585;44.802;10.332;2023-06-24T12:13:52;101078.72;;;33.68;22.91
78121;BME280;67585;44.802;10.332;2023-06-24T12:16:18;101078.72;;;33.68;22.95
78121;BME280;67585;44.802;10.332;2023-06-24T12:18:43;101016.78;;;32.52;23.86
78121;BME280;67585;44.802;10.332;2023-06-24T12:21:09;101064.19;;;32.74;24.90
78121;BME280;67585;44.802;10.332;2023-06-24T12:23:35;101052.44;;;33.51;23.54
78121;BME280;67585;44.802;10.332;2023-06-24T12:26:00;101038.44;;;33.54;23.00
78121;BME280;67585;44.802;10.332;2023-06-24T12:28:26;101076.28;;;33.73;23.31
78121;BME280;67585;44.802;10.332;2023-06-24T12:30:51;101063.06;;;33.84;22.71
78121;BME280;67585;44.802;10.332;2023-06-24T12:33:16;101069.56;;;33.67;23.05
78121;BME280;67585;44.802;10.332;2023-06-24T12:35:44;101052.19;;;33.13;22.68
78121;BME280;67585;44.802;10.332;2023-06-24T12:38:09;101066.59;;;32.83;23.90
78121;BME280;67585;44.802;10.332;2023-06-24T12:40:35;101059.78;;;32.84;23.90
78121;BME280;67585;44.802;10.332;2023-06-24T12:43:00;101054.09;;;33.30;23.56
78121;BME280;67585;44.802;10.332;2023-06-24T12:45:25;101064.47;;;33.30;23.26